Time;durP1;ratioP1;P1;durP2;ratioP2;P2;SDS_P1;SDS_P2;PMS_P1;PMS_P2;Temp;Humidity;BMP_temperature;BMP_pressure;BME280_temperature;BME280_humidity;BME280_pressure;Samples;Min_cycle;Max_cycle;Signal;HPM_P1;HPM_P2
2023/12/30 00:01:15;;;;;;;6.68;1.73;;;6.90;99.90;;;;;;6344976;28;20047;-81
2023/12/30 00:04:17;;;;;;;7.13;1.55;;;7.00;99.90;;;;;;6344900;28;20048;-81
2023/12/30 00:07:19;;;;;;;12.55;1.88;;;7.00;99.90;;;;;;6344386;28;20051;-80
2023/12/30 00:10:20;;;;;;;9.65;2.03;;;7.00;99.90;;;;;;6342562;28;20793;-80
2023/12/30 00:13:22;;;;;;;9.13;1.75;;;7.00;99.90;;;;;;6335103;28;20139;-81
2023/12/30 00:16:24;;;;;;;9.05;1.60;;;7.00;99.90;;;;;;6319370;28;20666;-79
2023/12/30 00:19:25;;;;;;;7.20;1.60;;;7.10;99.90;;;;;;6343572;28;20044;-78
2023/12/30 00:22:27;;;;;;;11.45;1.50;;;7.10;99.90;;;;;;6344639;28;20056;-80
2023/12/30 00:25:29;;;;;;;10.25;1.55;;;7.10;99.90;;;;;;6319999;28;20130;-79
2023/12/30 00:28:30;;;;;;;8.90;1.40;;;7.10;99.90;;;;;;6334838;28;20044;-79
2023/12/30 00:31:33;;;;;;;9.18;1.67;;;7.10;99.90;;;;;;6332237;28;20406;-79
2023/12/30 00:34:35;;;;;;;9.55;1.85;;;7.10;99.90;;;;;;6343549;28;20411;-79
2023/12/30 00:37:36;;;;;;;8.30;1.83;;;7.10;99.90;;;;;;6318442;28;20056;-80
2023/12/30 00:40:38;;;;;;;10.23;1.80;;;7.10;99.90;;;;;;6343245;28;20054;-79
2023/12/30 00:43:43;;;;;;;9.68;1.52;;;7.10;99.90;;;;;;6322967;28;20529;-79
2023/12/30 00:46:44;;;;;;;12.25;2.05;;;7.00;99.90;;;;;;6343070;28;20422;-79
2023/12/30 00:49:46;;;;;;;13.57;1.50;;;7.10;99.90;;;;;;6362178;28;20058;-80
2023/12/30 00:52:48;;;;;;;8.90;1.58;;;7.00;99.90;;;;;;6343740;28;20498;-80
2023/12/30 00:55:49;;;;;;;9.65;1.60;;;7.10;99.90;;;;;;6368230;28;20077;-79
2023/12/30 00:58:51;;;;;;;10.90;1.88;;;7.10;99.90;;;;;;6352392;28;20629;-78
2023/12/30 01:01:52;;;;;;;9.68;1.80;;;7.10;99.90;;;;;;6343628;28;20051;-81
2023/12/30 01:04:54;;;;;;;8.35;1.65;;;7.00;99.90;;;;;;6350552;27;20054;-80
2023/12/30 01:07:56;;;;;;;10.65;1.70;;;7.00;99.90;;;;;;6363781;27;20051;-79
2023/12/30 01:10:58;;;;;;;7.60;1.30;;;7.10;99.90;;;;;;6372957;27;20047;-80
2023/12/30 01:13:59;;;;;;;7.80;1.42;;;7.10;99.90;;;;;;6356920;27;20050;-79
2023/12/30 01:17:01;;;;;;;11.25;1.75;;;7.00;99.90;;;;;;6354499;27;20062;-81
2023/12/30 01:20:03;;;;;;;12.10;1.60;;;7.00;99.90;;;;;;6348187;27;20047;-79
2023/12/30 01:23:04;;;;;;;8.57;1.75;;;6.90;99.90;;;;;;6373249;27;20056;-79
2023/12/30 01:26:06;;;;;;;9.98;1.55;;;6.90;99.90;;;;;;6349034;27;20051;-79
2023/12/30 01:29:07;;;;;;;11.32;1.80;;;6.90;99.90;;;;;;6357927;27;20050;-82
2023/12/30 01:32:09;;;;;;;8.20;1.67;;;6.80;99.90;;;;;;6350753;28;20058;-80
2023/12/30 01:35:11;;;;;;;7.80;1.65;;;6.90;99.90;;;;;;6399649;27;20047;-81
2023/12/30 01:38:12;;;;;;;10.35;1.67;;;6.80;99.90;;;;;;6366400;27;20417;-80
2023/12/30 01:41:14;;;;;;;11.23;1.95;;;6.90;99.90;;;;;;6374813;27;20043;-80
2023/12/30 01:44:15;;;;;;;6.70;1.30;;;6.90;99.90;;;;;;6354636;27;20060;-80
2023/12/30 01:47:17;;;;;;;13.13;1.70;;;6.80;99.90;;;;;;6369108;27;20055;-80
2023/12/30 01:50:19;;;;;;;14.25;1.90;;;6.80;99.90;;;;;;6347187;27;20047;-80
2023/12/30 01:53:20;;;;;;;8.55;1.52;;;6.80;99.90;;;;;;6371025;27;20060;-80
2023/12/30 01:56:22;;;;;;;15.90;1.90;;;6.80;99.90;;;;;;6353489;27;20055;-79
2023/12/30 01:59:24;;;;;;;13.55;2.15;;;6.80;99.90;;;;;;6358610;27;20448;-80
2023/12/30 02:02:26;;;;;;;13.07;1.42;;;6.80;99.90;;;;;;6353994;27;20055;-79
2023/12/30 02:05:27;;;;;;;11.02;1.55;;;6.80;99.90;;;;;;6371769;27;20055;-80
2023/12/30 02:08:29;;;;;;;10.57;1.52;;;6.80;99.90;;;;;;6346559;27;20686;-79
2023/12/30 02:11:31;;;;;;;9.43;1.35;;;6.80;99.90;;;;;;6370776;27;20501;-79
2023/12/30 02:14:33;;;;;;;8.25;1.30;;;6.70;99.90;;;;;;6347775;27;20043;-80
2023/12/30 02:17:34;;;;;;;5.80;1.17;;;6.60;99.90;;;;;;6346623;27;20418;-80
2023/12/30 02:20:36;;;;;;;15.45;1.73;;;6.60;99.90;;;;;;6370765;27;20089;-79
2023/12/30 02:23:38;;;;;;;11.95;1.90;;;6.50;99.90;;;;;;6346102;27;20051;-80
2023/12/30 02:26:40;;;;;;;9.38;1.30;;;6.50;99.90;;;;;;6370959;27;20047;-79
2023/12/30 02:29:41;;;;;;;8.38;1.42;;;6.50;99.90;;;;;;6360536;27;20489;-81
2023/12/30 02:32:43;;;;;;;7.00;1.10;;;6.40;99.90;;;;;;6346032;27;20055;-80
2023/12/30 02:35:46;;;;;;;13.10;1.67;;;6.30;99.90;;;;;;6352207;27;20059;-80
2023/12/30 02:38:48;;;;;;;9.30;1.23;;;6.20;99.90;;;;;;6356088;27;20425;-79
2023/12/30 02:41:49;;;;;;;6.88;1.63;;;6.20;99.90;;;;;;6345902;27;20062;-79
2023/12/30 02:44:51;;;;;;;6.63;1.10;;;6.20;99.90;;;;;;6362864;27;20056;-79
2023/12/30 02:47:53;;;;;;;9.68;1.95;;;6.10;99.90;;;;;;6370298;27;20111;-80
2023/12/30 02:50:54;;;;;;;7.75;1.65;;;6.10;99.90;;;;;;6345487;27;20047;-80
2023/12/30 02:53:56;;;;;;;8.00;1.40;;;6.00;99.90;;;;;;6370353;27;20051;-79
2023/12/30 02:56:58;;;;;;;9.77;1.63;;;6.10;99.90;;;;;;6370589;27;20054;-80
2023/12/30 02:59:59;;;;;;;10.15;2.05;;;6.10;99.90;;;;;;6368105;27;20055;-79
2023/12/30 03:03:01;;;;;;;9.35;1.48;;;6.10;99.90;;;;;;6352091;27;20138;-79
2023/12/30 03:06:03;;;;;;;13.65;1.85;;;6.30;99.90;;;;;;6370054;27;20058;-81
2023/12/30 03:09:05;;;;;;;7.43;1.20;;;6.40;99.90;;;;;;6344866;27;20063;-78
2023/12/30 03:12:08;;;;;;;10.07;1.58;;;6.40;99.90;;;;;;6369243;27;20410;-79
2023/12/30 03:15:09;;;;;;;13.13;1.90;;;6.40;99.90;;;;;;6348797;27;20051;-79
2023/12/30 03:18:11;;;;;;;11.43;1.50;;;6.40;99.90;;;;;;6365281;27;20131;-79
2023/12/30 03:21:13;;;;;;;10.13;1.77;;;6.40;99.90;;;;;;6326309;28;20708;-80
2023/12/30 03:24:15;;;;;;;9.23;1.38;;;6.50;99.90;;;;;;6369151;27;20418;-80
2023/12/30 03:27:16;;;;;;;12.90;1.88;;;6.50;99.90;;;;;;6351450;27;20058;-80
2023/12/30 03:30:18;;;;;;;10.55;1.80;;;6.60;99.90;;;;;;6368056;27;20055;-79
2023/12/30 03:33:20;;;;;;;11.90;2.00;;;6.60;99.90;;;;;;6344618;27;20051;-79
2023/12/30 03:36:22;;;;;;;12.10;2.13;;;6.70;99.90;;;;;;6368735;27;20490;-80
2023/12/30 03:39:23;;;;;;;15.85;2.20;;;6.70;99.90;;;;;;6360156;27;20510;-80
2023/12/30 03:42:27;;;;;;;11.02;1.63;;;6.70;99.90;;;;;;6344417;28;20055;-80
2023/12/30 03:45:28;;;;;;;9.02;1.55;;;6.80;99.90;;;;;;6345558;27;20055;-78
2023/12/30 03:48:30;;;;;;;11.60;1.70;;;6.70;99.90;;;;;;6368889;27;20623;-79
2023/12/30 03:51:32;;;;;;;12.75;1.60;;;6.80;99.90;;;;;;6368776;27;20082;-80
2023/12/30 03:54:33;;;;;;;14.13;1.52;;;6.80;99.90;;;;;;6360171;27;20057;-79
2023/12/30 03:57:35;;;;;;;10.90;1.83;;;6.80;99.90;;;;;;6368317;27;20074;-80
2023/12/30 04:00:36;;;;;;;14.02;2.15;;;6.80;99.90;;;;;;6339787;28;20051;-79
2023/12/30 04:03:38;;;;;;;11.85;1.73;;;6.90;99.90;;;;;;6369501;27;20061;-79
2023/12/30 04:06:40;;;;;;;12.18;1.75;;;6.90;99.90;;;;;;6369576;27;20635;-79
2023/12/30 04:09:41;;;;;;;13.45;1.88;;;6.90;99.90;;;;;;6369309;28;20080;-79
2023/12/30 04:12:43;;;;;;;13.77;1.70;;;7.00;99.90;;;;;;6368230;28;20043;-80
2023/12/30 04:15:45;;;;;;;12.38;1.60;;;7.10;99.90;;;;;;6366072;28;20047;-79
2023/12/30 04:18:46;;;;;;;12.60;1.73;;;7.10;99.90;;;;;;6343040;28;20062;-79
2023/12/30 04:21:48;;;;;;;10.77;1.90;;;7.10;99.90;;;;;;6367909;28;20051;-79
2023/12/30 04:24:51;;;;;;;11.30;1.70;;;7.10;99.90;;;;;;6349442;28;20086;-79
2023/12/30 04:27:55;;;;;;;13.32;2.00;;;7.20;99.90;;;;;;6364166;28;20164;-80
2023/12/30 04:30:57;;;;;;;18.88;2.00;;;7.10;99.90;;;;;;6363123;28;20054;-79
2023/12/30 04:33:58;;;;;;;7.82;1.75;;;7.20;99.90;;;;;;6364113;28;20050;-79
2023/12/30 04:37:00;;;;;;;9.00;2.08;;;7.20;99.90;;;;;;6343176;28;20066;-80
2023/12/30 04:40:02;;;;;;;16.52;1.80;;;7.30;99.90;;;;;;6343515;28;20059;-80
2023/12/30 04:43:04;;;;;;;12.77;1.80;;;7.40;99.90;;;;;;6351478;27;20051;-79
2023/12/30 04:46:06;;;;;;;10.25;2.17;;;7.30;99.90;;;;;;6321748;22;20052;-92
2023/12/30 04:49:11;;;;;;;11.00;1.73;;;7.30;99.90;;;;;;6296534;28;20116;-92
2023/12/30 04:52:13;;;;;;;13.57;1.98;;;7.40;99.90;;;;;;6296857;28;20049;-92
2023/12/30 04:55:15;;;;;;;14.13;1.85;;;7.50;99.90;;;;;;6295912;28;20045;-92
2023/12/30 04:58:17;;;;;;;15.40;2.30;;;7.50;99.90;;;;;;6263273;28;20079;-93
2023/12/30 05:01:19;;;;;;;15.25;1.73;;;7.50;99.90;;;;;;6288104;28;20052;-91
2023/12/30 05:04:21;;;;;;;10.82;1.92;;;7.50;99.90;;;;;;6285699;28;20075;-94
2023/12/30 05:07:22;;;;;;;15.82;2.10;;;7.50;99.90;;;;;;6281620;28;20045;-93
2023/12/30 05:10:24;;;;;;;10.35;1.88;;;7.50;99.90;;;;;;6287003;28;20060;-91
2023/12/30 05:13:26;;;;;;;11.93;1.88;;;7.50;99.90;;;;;;6263086;28;20048;-93
2023/12/30 05:16:28;;;;;;;8.98;2.15;;;7.50;99.90;;;;;;6284809;28;20407;-93
2023/12/30 05:19:29;;;;;;;13.70;2.13;;;7.50;99.90;;;;;;6263533;28;20068;-93
2023/12/30 05:22:32;;;;;;;13.23;2.33;;;7.50;99.90;;;;;;6288498;28;20507;-93
2023/12/30 05:25:33;;;;;;;13.77;1.98;;;7.60;99.90;;;;;;6267279;28;20053;-92
2023/12/30 05:28:35;;;;;;;11.20;2.13;;;7.40;99.90;;;;;;6273351;28;20052;-93
2023/12/30 05:31:37;;;;;;;17.65;1.83;;;7.30;99.90;;;;;;6260234;28;20061;-91
2023/12/30 05:34:39;;;;;;;16.83;2.60;;;7.20;99.90;;;;;;6287167;28;20508;-92
2023/12/30 05:37:40;;;;;;;16.70;2.40;;;7.20;99.90;;;;;;6286776;28;20056;-93
2023/12/30 05:40:42;;;;;;;15.48;2.08;;;7.20;99.90;;;;;;6273712;28;20049;-93
2023/12/30 05:43:44;;;;;;;16.17;2.30;;;7.10;99.90;;;;;;6284099;28;20049;-93
2023/12/30 05:46:46;;;;;;;12.90;2.05;;;7.10;99.90;;;;;;6284538;28;20053;-92
2023/12/30 05:49:48;;;;;;;15.68;2.28;;;7.00;99.90;;;;;;6287706;28;20044;-93
2023/12/30 05:52:52;;;;;;;16.85;2.50;;;6.90;99.90;;;;;;6264971;28;20048;-92
2023/12/30 05:55:54;;;;;;;14.13;2.00;;;6.90;99.90;;;;;;6284833;28;20050;-92
2023/12/30 05:58:55;;;;;;;13.27;2.42;;;7.00;99.90;;;;;;6286330;28;20045;-94
2023/12/30 06:01:58;;;;;;;17.58;2.95;;;7.00;99.90;;;;;;6271986;28;20032;-93
2023/12/30 06:05:00;;;;;;;15.15;1.90;;;7.10;99.90;;;;;;6275143;28;20056;-93
2023/12/30 06:08:02;;;;;;;14.55;2.20;;;7.10;99.90;;;;;;6306091;28;20488;-93
2023/12/30 06:11:04;;;;;;;14.63;2.38;;;7.20;99.90;;;;;;6269843;28;20499;-93
2023/12/30 06:14:06;;;;;;;16.88;2.33;;;7.40;99.90;;;;;;6303281;28;20419;-92
2023/12/30 06:17:08;;;;;;;18.70;2.00;;;7.40;99.90;;;;;;6288344;28;20114;-93
2023/12/30 06:20:10;;;;;;;17.02;2.33;;;7.50;99.90;;;;;;6280411;28;20099;-93
2023/12/30 06:23:12;;;;;;;16.00;2.20;;;7.50;99.90;;;;;;6305469;28;20064;-93
2023/12/30 06:26:13;;;;;;;21.88;2.30;;;7.60;99.90;;;;;;6281203;28;20064;-93
2023/12/30 06:29:15;;;;;;;13.70;2.53;;;7.70;99.90;;;;;;6276140;28;20063;-92
2023/12/30 06:32:17;;;;;;;16.98;2.50;;;7.90;99.90;;;;;;6278127;28;20081;-94
2023/12/30 06:35:19;;;;;;;21.08;3.20;;;8.00;99.90;;;;;;6301064;28;20514;-93
2023/12/30 06:38:21;;;;;;;16.83;2.50;;;8.10;99.90;;;;;;6279866;28;20061;-94
2023/12/30 06:41:24;;;;;;;19.45;2.60;;;8.20;99.90;;;;;;6288152;28;20510;-94
2023/12/30 06:44:25;;;;;;;19.38;3.08;;;8.20;99.90;;;;;;6297915;28;20083;-95
2023/12/30 06:47:27;;;;;;;18.67;2.45;;;8.30;99.90;;;;;;6313414;28;20048;-93
2023/12/30 06:50:29;;;;;;;18.83;2.50;;;8.30;99.90;;;;;;6311510;28;20414;-93
2023/12/30 06:53:31;;;;;;;19.77;2.80;;;8.40;99.90;;;;;;6288768;28;20041;-93
2023/12/30 06:56:32;;;;;;;20.83;2.47;;;8.40;99.90;;;;;;6291358;28;20056;-93
2023/12/30 06:59:35;;;;;;;18.13;2.55;;;8.40;99.90;;;;;;6288901;28;20064;-94
2023/12/30 07:02:37;;;;;;;17.20;2.55;;;8.40;99.90;;;;;;6284758;28;20037;-93
2023/12/30 07:05:38;;;;;;;24.98;3.28;;;8.60;99.90;;;;;;6298842;28;20040;-94
2023/12/30 07:08:40;;;;;;;17.77;2.50;;;8.60;99.90;;;;;;6294810;28;20527;-93
2023/12/30 07:11:42;;;;;;;24.40;3.05;;;8.70;99.90;;;;;;6264442;28;20060;-91
2023/12/30 07:14:43;;;;;;;19.98;3.05;;;8.70;99.90;;;;;;6289982;28;20060;-93
2023/12/30 07:17:48;;;;;;;21.60;2.63;;;8.80;99.90;;;;;;6291436;28;20048;-92
2023/12/30 07:20:50;;;;;;;16.80;2.50;;;8.80;99.90;;;;;;6268776;28;20061;-92
2023/12/30 07:23:51;;;;;;;19.92;2.85;;;8.70;99.90;;;;;;6295370;28;20056;-92
2023/12/30 07:26:53;;;;;;;24.02;3.30;;;8.70;99.90;;;;;;6263850;28;20052;-92
2023/12/30 07:29:55;;;;;;;22.27;2.70;;;8.80;99.90;;;;;;6281632;28;20055;-93
2023/12/30 07:32:56;;;;;;;20.50;2.90;;;8.80;99.90;;;;;;6261171;28;20082;-92
2023/12/30 07:35:58;;;;;;;23.02;2.42;;;8.90;99.90;;;;;;6276844;28;20357;-93
2023/12/30 07:39:00;;;;;;;21.88;2.97;;;8.90;99.90;;;;;;6281509;28;20052;-92
2023/12/30 07:42:01;;;;;;;18.98;2.55;;;8.90;99.90;;;;;;6257575;28;20060;-91
2023/12/30 07:45:03;;;;;;;17.40;2.42;;;9.00;99.90;;;;;;6281822;28;20064;-93
2023/12/30 07:48:05;;;;;;;19.73;2.35;;;9.00;99.90;;;;;;6280636;28;20045;-93
2023/12/30 07:51:07;;;;;;;21.92;2.67;;;9.00;99.90;;;;;;6290607;28;20432;-92
2023/12/30 07:54:08;;;;;;;20.38;2.88;;;9.10;99.90;;;;;;6281159;28;20049;-93
2023/12/30 07:57:10;;;;;;;17.40;2.47;;;9.10;99.90;;;;;;6274034;28;20048;-93
2023/12/30 08:00:12;;;;;;;17.20;2.47;;;9.10;99.90;;;;;;6287110;28;20136;-91
2023/12/30 08:03:13;;;;;;;19.52;2.65;;;9.10;99.90;;;;;;6281764;28;20056;-91
2023/12/30 08:06:15;;;;;;;15.32;2.20;;;9.10;99.90;;;;;;6257100;28;20818;-90
2023/12/30 08:09:17;;;;;;;16.70;2.30;;;9.10;99.90;;;;;;6280163;28;20055;-93
2023/12/30 08:12:18;;;;;;;15.77;2.97;;;9.20;99.90;;;;;;6259778;28;20484;-92
2023/12/30 08:15:20;;;;;;;15.75;1.95;;;9.10;99.90;;;;;;6303852;28;20056;-92
2023/12/30 08:18:22;;;;;;;15.05;2.35;;;9.20;99.90;;;;;;6270588;28;20056;-93
2023/12/30 08:21:24;;;;;;;17.92;2.88;;;9.20;99.90;;;;;;6289450;28;20044;-92
2023/12/30 08:24:28;;;;;;;19.33;2.95;;;9.30;99.90;;;;;;6286823;28;20976;-94
2023/12/30 08:27:30;;;;;;;19.98;3.13;;;9.30;99.90;;;;;;6295579;28;20040;-93
2023/12/30 08:33:59;;;;;;;14.38;2.63;;;9.40;99.90;;;;;;6310835;28;20507;-94
2023/12/30 08:37:08;;;;;;;20.40;2.70;;;9.40;99.90;;;;;;6298468;28;20057;-95
2023/12/30 08:40:10;;;;;;;16.65;2.80;;;9.50;99.90;;;;;;6282620;28;20052;-92
2023/12/30 08:43:13;;;;;;;15.45;2.83;;;9.60;99.90;;;;;;6302330;28;20059;-85
2023/12/30 08:46:15;;;;;;;21.60;2.95;;;9.60;99.90;;;;;;6286396;28;20057;-91
2023/12/30 08:49:17;;;;;;;15.80;2.92;;;9.70;99.90;;;;;;6275230;28;20057;-87
2023/12/30 08:52:19;;;;;;;19.95;3.28;;;9.70;99.90;;;;;;6262553;28;20492;-86
2023/12/30 08:55:21;;;;;;;18.88;2.50;;;9.70;99.90;;;;;;6294119;28;20063;-87
2023/12/30 08:58:24;;;;;;;16.65;2.95;;;9.70;99.90;;;;;;6261279;28;20052;-87
2023/12/30 09:01:25;;;;;;;22.85;3.35;;;9.70;99.90;;;;;;6273635;28;20421;-88
2023/12/30 09:04:28;;;;;;;15.88;3.05;;;9.70;99.90;;;;;;6270644;28;20052;-88
2023/12/30 09:07:29;;;;;;;14.57;2.35;;;9.80;99.90;;;;;;6261065;28;20049;-88
2023/12/30 09:10:31;;;;;;;17.65;2.88;;;9.90;99.90;;;;;;6301711;28;20419;-88
2023/12/30 09:13:34;;;;;;;19.05;2.80;;;10.00;99.90;;;;;;6264380;28;20132;-88
2023/12/30 09:16:35;;;;;;;22.63;3.38;;;10.10;99.90;;;;;;6276897;28;20052;-87
2023/12/30 09:19:38;;;;;;;20.15;3.17;;;10.20;99.90;;;;;;6278562;28;20057;-89
2023/12/30 09:22:40;;;;;;;13.65;2.58;;;10.20;99.90;;;;;;6293364;28;20123;-88
2023/12/30 09:25:41;;;;;;;18.75;3.33;;;10.30;99.90;;;;;;6286383;28;20080;-90
2023/12/30 09:28:43;;;;;;;17.00;2.92;;;10.30;99.90;;;;;;6276131;28;20044;-89
2023/12/30 09:31:45;;;;;;;17.05;2.90;;;10.50;99.90;;;;;;6302876;28;20052;-88
2023/12/30 09:34:47;;;;;;;22.73;3.15;;;10.50;99.90;;;;;;6284851;28;20487;-86
2023/12/30 09:37:49;;;;;;;12.95;3.03;;;10.60;99.90;;;;;;6279490;28;20451;-90
2023/12/30 09:40:51;;;;;;;15.15;3.03;;;10.70;99.90;;;;;;6283017;28;20049;-89
2023/12/30 09:43:53;;;;;;;18.55;2.85;;;10.70;99.90;;;;;;6279899;28;20511;-89
2023/12/30 09:46:55;;;;;;;13.65;2.88;;;10.80;99.90;;;;;;6256251;28;20048;-90
2023/12/30 09:49:57;;;;;;;12.85;2.65;;;10.90;99.90;;;;;;6279604;28;20052;-91
2023/12/30 09:52:58;;;;;;;18.40;2.75;;;10.90;99.90;;;;;;6257143;28;20136;-89
2023/12/30 09:56:01;;;;;;;16.58;2.58;;;11.00;99.90;;;;;;6299058;28;20061;-89
2023/12/30 09:59:02;;;;;;;16.08;2.88;;;11.00;99.90;;;;;;6266332;28;20485;-89
2023/12/30 10:02:06;;;;;;;15.93;2.95;;;11.00;99.90;;;;;;6256897;28;20055;-90
2023/12/30 10:05:08;;;;;;;13.80;2.50;;;11.00;99.90;;;;;;6298148;28;20134;-90
2023/12/30 10:08:09;;;;;;;17.35;2.38;;;11.10;99.90;;;;;;6273129;28;20508;-91
2023/12/30 10:11:11;;;;;;;23.00;2.70;;;11.20;99.90;;;;;;6298534;28;20160;-95
2023/12/30 10:14:13;;;;;;;17.65;2.90;;;11.20;99.90;;;;;;6284150;28;20068;-87
2023/12/30 10:17:15;;;;;;;12.60;2.45;;;11.20;99.90;;;;;;6254654;28;20060;-89
2023/12/30 10:20:23;;;;;;;19.02;2.55;;;11.30;99.90;;;;;;6279105;28;20062;-90
2023/12/30 10:23:25;;;;;;;14.45;2.63;;;11.30;99.90;;;;;;6271044;28;20064;-87
2023/12/30 10:26:26;;;;;;;16.13;2.70;;;11.30;99.90;;;;;;6296444;28;20454;-89
2023/12/30 10:29:28;;;;;;;14.90;2.33;;;11.30;99.90;;;;;;6266694;28;20064;-90
2023/12/30 10:32:30;;;;;;;14.85;2.50;;;11.40;99.90;;;;;;6254554;28;20566;-87
2023/12/30 10:35:31;;;;;;;13.07;2.22;;;11.50;99.90;;;;;;6279094;28;20065;-92
2023/12/30 10:38:33;;;;;;;11.98;2.10;;;11.50;99.90;;;;;;6255431;28;20057;-90
2023/12/30 10:41:35;;;;;;;15.32;2.67;;;11.50;99.90;;;;;;6296350;28;20052;-89
2023/12/30 10:44:36;;;;;;;12.80;2.33;;;11.50;99.90;;;;;;6261051;28;20516;-91
2023/12/30 10:47:39;;;;;;;12.75;2.53;;;11.60;99.90;;;;;;6272184;28;20044;-86
2023/12/30 10:50:41;;;;;;;13.75;2.20;;;11.50;99.90;;;;;;6293903;28;20903;-86
2023/12/30 10:53:44;;;;;;;16.88;2.35;;;11.50;99.90;;;;;;6261590;28;20074;-89
2023/12/30 10:56:47;;;;;;;15.20;2.45;;;11.50;99.90;;;;;;6269977;28;20148;-88
2023/12/30 10:59:49;;;;;;;14.93;2.55;;;11.50;99.90;;;;;;6270095;28;20072;-88
2023/12/30 11:02:50;;;;;;;10.77;1.98;;;11.40;99.90;;;;;;6295704;28;20497;-89
2023/12/30 11:05:52;;;;;;;17.70;2.50;;;11.30;99.90;;;;;;6274936;28;20056;-89
2023/12/30 11:08:54;;;;;;;14.07;2.45;;;11.30;99.90;;;;;;6253678;28;20052;-88
2023/12/30 11:11:56;;;;;;;15.32;2.30;;;11.20;99.90;;;;;;6277079;28;20063;-86
2023/12/30 11:14:58;;;;;;;12.40;2.38;;;11.20;99.90;;;;;;6263124;28;20045;-89
2023/12/30 11:18:01;;;;;;;9.43;2.00;;;11.30;99.90;;;;;;6271280;28;20060;-86
2023/12/30 11:21:03;;;;;;;15.45;2.35;;;11.20;99.90;;;;;;6275374;28;20071;-90
2023/12/30 11:24:07;;;;;;;12.13;2.42;;;11.30;99.90;;;;;;6276471;28;20048;-85
2023/12/30 11:27:08;;;;;;;9.00;1.73;;;11.40;99.90;;;;;;6270592;28;20155;-88
2023/12/30 11:30:10;;;;;;;10.65;2.33;;;11.40;99.90;;;;;;6274254;28;20067;-87
2023/12/30 11:33:12;;;;;;;12.52;2.20;;;11.40;99.90;;;;;;6253344;28;20158;-88
2023/12/30 11:36:14;;;;;;;9.13;1.90;;;11.50;99.90;;;;;;6291582;28;20424;-83
2023/12/30 11:39:16;;;;;;;11.40;2.25;;;11.40;99.90;;;;;;6268448;28;20057;-81
2023/12/30 11:42:17;;;;;;;12.50;2.17;;;11.40;99.90;;;;;;6274701;28;20052;-81
2023/12/30 11:45:19;;;;;;;10.82;2.03;;;11.40;99.90;;;;;;6267790;28;20090;-81
2023/12/30 11:48:20;;;;;;;15.90;2.58;;;11.40;99.90;;;;;;6290867;28;20052;-81
2023/12/30 11:51:22;;;;;;;13.48;2.28;;;11.40;99.90;;;;;;6272698;28;20415;-84
2023/12/30 11:54:24;;;;;;;14.65;2.33;;;11.50;99.90;;;;;;6251574;28;20044;-82
2023/12/30 11:57:26;;;;;;;16.92;2.55;;;11.60;99.90;;;;;;6251957;28;20072;-84
2023/12/30 12:00:27;;;;;;;14.32;2.33;;;11.70;99.90;;;;;;6271789;28;20056;-82
2023/12/30 12:03:29;;;;;;;14.45;2.33;;;11.60;99.90;;;;;;6250653;28;20052;-83
2023/12/30 12:06:31;;;;;;;14.20;2.63;;;11.70;99.90;;;;;;6274713;28;20052;-83
2023/12/30 12:09:33;;;;;;;16.40;2.45;;;11.70;99.90;;;;;;6268487;28;20076;-83
2023/12/30 12:12:34;;;;;;;13.63;2.63;;;11.70;99.90;;;;;;6292471;28;20057;-83
2023/12/30 12:15:36;;;;;;;14.48;2.38;;;11.70;99.90;;;;;;6266766;28;20049;-82
2023/12/30 12:18:38;;;;;;;12.80;2.08;;;11.80;99.90;;;;;;6266246;28;20049;-82
2023/12/30 12:21:40;;;;;;;19.35;2.78;;;11.70;99.90;;;;;;6292168;28;20044;-82
2023/12/30 12:24:41;;;;;;;12.20;2.20;;;11.80;99.90;;;;;;6250878;28;20491;-82
2023/12/30 12:27:43;;;;;;;10.32;2.08;;;11.80;99.90;;;;;;6291647;28;20234;-83
2023/12/30 12:30:44;;;;;;;12.23;2.30;;;11.90;99.90;;;;;;6249061;28;20064;-83
2023/12/30 12:33:46;;;;;;;14.48;2.42;;;11.80;99.90;;;;;;6250330;28;20049;-83
2023/12/30 12:36:48;;;;;;;12.98;2.30;;;11.90;99.90;;;;;;6292380;28;20053;-82
2023/12/30 12:39:49;;;;;;;10.80;1.90;;;11.90;99.90;;;;;;6250573;28;20120;-83
2023/12/30 12:42:51;;;;;;;10.80;2.05;;;11.90;99.90;;;;;;6289970;28;20484;-83
2023/12/30 12:45:53;;;;;;;10.98;1.80;;;11.90;99.90;;;;;;6265714;28;20065;-84
2023/12/30 12:48:55;;;;;;;13.05;2.13;;;11.90;99.90;;;;;;6249709;28;20407;-83
2023/12/30 12:51:57;;;;;;;13.07;2.25;;;11.80;99.90;;;;;;6274439;28;20052;-84
2023/12/30 12:54:59;;;;;;;11.70;2.08;;;11.80;99.90;;;;;;6248374;28;20044;-83
2023/12/30 12:58:02;;;;;;;11.68;1.70;;;11.90;99.90;;;;;;6250762;28;20049;-82
2023/12/30 13:01:04;;;;;;;8.10;1.73;;;12.00;99.90;;;;;;6292453;28;20401;-83
2023/12/30 13:04:05;;;;;;;10.05;1.80;;;12.00;99.90;;;;;;6271816;28;20445;-83
2023/12/30 13:07:07;;;;;;;16.65;2.40;;;12.00;99.90;;;;;;6286618;28;20049;-83
2023/12/30 13:10:36;;;;;;;13.50;2.28;;;12.10;99.90;;;;;;6277917;28;20404;-83
2023/12/30 13:13:34;;;;;;;12.38;2.05;;;12.20;99.90;;;;;;6277477;28;20052;-83
2023/12/30 13:16:36;;;;;;;13.93;2.58;;;12.20;99.90;;;;;;6296729;28;20044;-83
2023/12/30 13:19:37;;;;;;;10.48;2.13;;;12.10;99.90;;;;;;6278475;28;20559;-83
2023/12/30 13:22:39;;;;;;;14.48;2.28;;;12.10;99.90;;;;;;6271793;28;20045;-83
2023/12/30 13:25:42;;;;;;;15.02;2.10;;;12.10;99.90;;;;;;6254181;28;20053;-84
2023/12/30 13:28:44;;;;;;;12.77;2.25;;;12.00;99.90;;;;;;6252785;28;20102;-83
2023/12/30 13:31:48;;;;;;;12.30;2.00;;;12.00;99.90;;;;;;6285949;28;20060;-84
2023/12/30 13:34:53;;;;;;;13.30;2.42;;;12.00;99.90;;;;;;6295648;28;20419;-83
2023/12/30 13:37:55;;;;;;;16.02;2.45;;;12.00;99.90;;;;;;6278123;28;20040;-83
2023/12/30 13:41:00;;;;;;;12.25;2.33;;;11.90;99.90;;;;;;6253437;28;20389;-83
2023/12/30 13:44:03;;;;;;;15.10;2.67;;;12.00;99.90;;;;;;6283536;28;20048;-83
2023/12/30 13:47:39;;;;;;;14.43;2.70;;;12.00;99.90;;;;;;6277711;28;20131;-83
2023/12/30 13:50:31;;;;;;;12.80;2.20;;;12.10;99.90;;;;;;6271072;28;20495;-83
2023/12/30 13:53:33;;;;;;;14.63;2.28;;;12.10;99.90;;;;;;6286738;28;20182;-83
2023/12/30 13:56:36;;;;;;;13.95;2.15;;;12.00;99.90;;;;;;6269527;28;20496;-82
2023/12/30 13:59:37;;;;;;;10.88;2.20;;;12.00;99.90;;;;;;6274198;28;20118;-82
2023/12/30 14:02:40;;;;;;;8.90;2.00;;;12.00;99.90;;;;;;6253210;28;20415;-83
2023/12/30 14:05:45;;;;;;;10.57;2.17;;;11.90;99.90;;;;;;6295572;28;20064;-83
2023/12/30 14:08:48;;;;;;;12.60;2.38;;;12.00;99.90;;;;;;6253077;28;20055;-82
2023/12/30 14:11:57;;;;;;;10.52;2.10;;;12.00;99.90;;;;;;6276486;28;20518;-83
2023/12/30 14:15:05;;;;;;;13.73;2.47;;;12.00;99.90;;;;;;6267062;28;20560;-83
2023/12/30 14:18:07;;;;;;;10.95;2.00;;;11.90;99.90;;;;;;6285727;28;20532;-82
2023/12/30 14:21:09;;;;;;;10.85;2.10;;;11.90;99.90;;;;;;6276637;28;20056;-83
2023/12/30 14:24:15;;;;;;;11.77;2.20;;;11.80;99.90;;;;;;6252984;28;20053;-83
2023/12/30 14:27:17;;;;;;;13.00;2.47;;;11.90;99.90;;;;;;6276676;28;20057;-83
2023/12/30 14:30:19;;;;;;;14.82;2.50;;;11.80;99.90;;;;;;6275259;28;20045;-83
2023/12/30 14:33:21;;;;;;;16.40;2.35;;;11.80;99.90;;;;;;6270257;28;20136;-83
2023/12/30 14:36:23;;;;;;;12.50;2.15;;;11.80;99.90;;;;;;6276555;28;20051;-83
2023/12/30 14:39:24;;;;;;;14.20;2.50;;;11.70;99.90;;;;;;6270462;28;20049;-83
2023/12/30 14:42:26;;;;;;;14.68;2.42;;;11.70;99.90;;;;;;6276289;28;20055;-83
2023/12/30 14:45:28;;;;;;;17.02;2.53;;;11.70;99.90;;;;;;6280754;28;20125;-82
2023/12/30 14:48:30;;;;;;;14.93;2.28;;;11.70;99.90;;;;;;6270806;28;20061;-83
2023/12/30 14:51:32;;;;;;;13.63;2.15;;;11.70;99.90;;;;;;6275878;28;20048;-82
2023/12/30 14:54:33;;;;;;;11.77;2.60;;;11.70;99.90;;;;;;6252425;28;20068;-82
2023/12/30 14:57:35;;;;;;;21.95;3.08;;;11.80;99.90;;;;;;6274099;28;20056;-82
2023/12/30 15:00:36;;;;;;;13.65;2.53;;;11.80;99.90;;;;;;6250428;28;20053;-81
2023/12/30 15:03:38;;;;;;;18.05;2.80;;;11.80;99.90;;;;;;6251541;28;20048;-81
2023/12/30 15:06:41;;;;;;;14.77;2.67;;;11.90;99.90;;;;;;6293293;28;20053;-83
2023/12/30 15:09:42;;;;;;;15.13;2.10;;;11.90;99.90;;;;;;6251625;28;20083;-82
2023/12/30 15:12:46;;;;;;;14.63;2.50;;;11.90;99.90;;;;;;6292022;28;20547;-82
2023/12/30 15:15:48;;;;;;;13.75;2.60;;;11.80;99.90;;;;;;6248860;28;20519;-83
2023/12/30 15:18:49;;;;;;;15.57;2.17;;;11.60;99.90;;;;;;6269211;28;20052;-83
2023/12/30 15:21:51;;;;;;;11.00;1.92;;;11.50;99.90;;;;;;6293332;28;20137;-83
2023/12/30 15:24:53;;;;;;;18.20;2.63;;;11.40;99.90;;;;;;6250987;28;20055;-83
2023/12/30 15:27:55;;;;;;;17.27;3.22;;;11.30;99.90;;;;;;6271471;28;20164;-85
2023/12/30 15:30:57;;;;;;;14.00;2.60;;;11.30;99.90;;;;;;6251516;28;20059;-84
2023/12/30 15:33:59;;;;;;;13.13;1.90;;;11.40;99.90;;;;;;6250649;28;20127;-82
2023/12/30 15:37:01;;;;;;;15.52;2.22;;;11.30;99.90;;;;;;6283477;28;20083;-84
2023/12/30 15:40:04;;;;;;;15.27;2.35;;;11.40;99.90;;;;;;6274795;28;20490;-83
2023/12/30 15:43:06;;;;;;;12.48;2.28;;;11.40;99.90;;;;;;6268881;28;20053;-85
2023/12/30 15:46:11;;;;;;;19.90;3.17;;;11.40;99.90;;;;;;6270761;28;20056;-84